sensor_id;sensor_type;location;lat;lon;timestamp;P1;durP1;ratioP1;P2;durP2;ratioP2
29688;SDS011;16600;47.444;8.334;2024-03-22T00:02:08;7.63;;;4.13;;
29688;SDS011;16600;47.444;8.334;2024-03-22T00:04:37;5.05;;;3.83;;
29688;SDS011;16600;47.444;8.334;2024-03-22T00:07:06;7.38;;;3.97;;
29688;SDS011;16600;47.444;8.334;2024-03-22T00:09:32;7.90;;;4.13;;
29688;SDS011;16600;47.444;8.334;2024-03-22T00:11:59;9.95;;;5.25;;
29688;SDS011;16600;47.444;8.334;2024-03-22T00:14:25;6.90;;;4.20;;
29688;SDS011;16600;47.444;8.334;2024-03-22T00:16:51;6.05;;;3.47;;
29688;SDS011;16600;47.444;8.334;2024-03-22T00:19:20;6.88;;;3.33;;
29688;SDS011;16600;47.444;8.334;2024-03-22T00:21:50;6.32;;;3.70;;
29688;SDS011;16600;47.444;8.334;2024-03-22T00:24:16;5.63;;;3.75;;
29688;SDS011;16600;47.444;8.334;2024-03-22T00:26:43;5.38;;;3.42;;
29688;SDS011;16600;47.444;8.334;2024-03-22T00:29:14;5.68;;;3.60;;
29688;SDS011;16600;47.444;8.334;2024-03-22T00:31:40;7.57;;;3.58;;
29688;SDS011;16600;47.444;8.334;2024-03-22T00:34:10;5.03;;;3.17;;
29688;SDS011;16600;47.444;8.334;2024-03-22T00:36:36;7.57;;;3.80;;
29688;SDS011;16600;47.444;8.334;2024-03-22T00:39:02;5.88;;;4.05;;
29688;SDS011;16600;47.444;8.334;2024-03-22T00:41:32;5.82;;;3.63;;
29688;SDS011;16600;47.444;8.334;2024-03-22T00:43:58;9.20;;;4.10;;
29688;SDS011;16600;47.444;8.334;2024-03-22T00:46:24;7.38;;;4.07;;
29688;SDS011;16600;47.444;8.334;2024-03-22T00:48:53;6.13;;;3.95;;
29688;SDS011;16600;47.444;8.334;2024-03-22T00:51:22;7.05;;;4.70;;
29688;SDS011;16600;47.444;8.334;2024-03-22T00:53:48;8.88;;;4.57;;
29688;SDS011;16600;47.444;8.334;2024-03-22T00:56:15;4.53;;;4.13;;
29688;SDS011;16600;47.444;8.334;2024-03-22T00:58:46;5.22;;;3.63;;
29688;SDS011;16600;47.444;8.334;2024-03-22T01:03:02;5.80;;;4.00;;
29688;SDS011;16600;47.444;8.334;2024-03-22T01:05:28;9.48;;;4.55;;
29688;SDS011;16600;47.444;8.334;2024-03-22T01:07:54;6.40;;;4.63;;
29688;SDS011;16600;47.444;8.334;2024-03-22T01:10:23;8.07;;;4.90;;
29688;SDS011;16600;47.444;8.334;2024-03-22T01:12:52;4.57;;;4.13;;
29688;SDS011;16600;47.444;8.334;2024-03-22T01:15:21;9.93;;;4.00;;
29688;SDS011;16600;47.444;8.334;2024-03-22T01:17:47;6.43;;;4.47;;
29688;SDS011;16600;47.444;8.334;2024-03-22T01:20:14;10.48;;;4.78;;
29688;SDS011;16600;47.444;8.334;2024-03-22T01:22:42;6.40;;;4.45;;
29688;SDS011;16600;47.444;8.334;2024-03-22T01:25:08;6.45;;;4.20;;
29688;SDS011;16600;47.444;8.334;2024-03-22T01:27:35;4.25;;;3.85;;
29688;SDS011;16600;47.444;8.334;2024-03-22T01:30:02;7.45;;;4.82;;
29688;SDS011;16600;47.444;8.334;2024-03-22T01:32:28;7.20;;;3.50;;
29688;SDS011;16600;47.444;8.334;2024-03-22T01:34:57;4.53;;;3.47;;
29688;SDS011;16600;47.444;8.334;2024-03-22T01:37:23;21.10;;;4.45;;
29688;SDS011;16600;47.444;8.334;2024-03-22T01:39:50;7.13;;;4.20;;
29688;SDS011;16600;47.444;8.334;2024-03-22T01:42:22;7.95;;;4.80;;
29688;SDS011;16600;47.444;8.334;2024-03-22T01:44:51;5.03;;;4.13;;
29688;SDS011;16600;47.444;8.334;2024-03-22T01:47:19;6.10;;;4.60;;
29688;SDS011;16600;47.444;8.334;2024-03-22T01:49:49;6.45;;;4.43;;
29688;SDS011;16600;47.444;8.334;2024-03-22T01:52:22;6.28;;;4.60;;
29688;SDS011;16600;47.444;8.334;2024-03-22T01:54:48;6.22;;;4.75;;
29688;SDS011;16600;47.444;8.334;2024-03-22T01:57:17;4.38;;;3.97;;
29688;SDS011;16600;47.444;8.334;2024-03-22T01:59:44;6.75;;;4.15;;
29688;SDS011;16600;47.444;8.334;2024-03-22T02:02:15;8.15;;;4.28;;
29688;SDS011;16600;47.444;8.334;2024-03-22T02:04:42;5.45;;;4.53;;
29688;SDS011;16600;47.444;8.334;2024-03-22T02:07:13;5.20;;;4.68;;
29688;SDS011;16600;47.444;8.334;2024-03-22T02:09:42;15.07;;;5.32;;
29688;SDS011;16600;47.444;8.334;2024-03-22T02:12:11;6.90;;;4.28;;
29688;SDS011;16600;47.444;8.334;2024-03-22T02:14:40;6.65;;;4.55;;
29688;SDS011;16600;47.444;8.334;2024-03-22T02:17:18;5.40;;;4.45;;
29688;SDS011;16600;47.444;8.334;2024-03-22T02:19:47;4.80;;;3.97;;
29688;SDS011;16600;47.444;8.334;2024-03-22T02:22:17;7.00;;;4.53;;
29688;SDS011;16600;47.444;8.334;2024-03-22T02:24:46;18.52;;;4.72;;
29688;SDS011;16600;47.444;8.334;2024-03-22T02:27:17;5.35;;;3.72;;
29688;SDS011;16600;47.444;8.334;2024-03-22T02:33:22;8.07;;;4.38;;
29688;SDS011;16600;47.444;8.334;2024-03-22T02:35:48;10.07;;;4.18;;
29688;SDS011;16600;47.444;8.334;2024-03-22T02:38:18;7.05;;;4.60;;
29688;SDS011;16600;47.444;8.334;2024-03-22T02:40:51;11.43;;;5.72;;
29688;SDS011;16600;47.444;8.334;2024-03-22T02:43:17;7.03;;;4.68;;
29688;SDS011;16600;47.444;8.334;2024-03-22T02:45:45;9.65;;;5.45;;
29688;SDS011;16600;47.444;8.334;2024-03-22T02:48:14;7.32;;;4.80;;
29688;SDS011;16600;47.444;8.334;2024-03-22T02:50:41;11.63;;;4.63;;
29688;SDS011;16600;47.444;8.334;2024-03-22T02:53:07;6.68;;;4.90;;
29688;SDS011;16600;47.444;8.334;2024-03-22T02:55:37;9.20;;;6.43;;
29688;SDS011;16600;47.444;8.334;2024-03-22T02:58:06;5.40;;;4.88;;
29688;SDS011;16600;47.444;8.334;2024-03-22T03:03:05;6.87;;;5.50;;
29688;SDS011;16600;47.444;8.334;2024-03-22T03:05:31;6.18;;;5.00;;
29688;SDS011;16600;47.444;8.334;2024-03-22T03:07:58;11.65;;;5.38;;
29688;SDS011;16600;47.444;8.334;2024-03-22T03:10:24;6.85;;;5.10;;
29688;SDS011;16600;47.444;8.334;2024-03-22T03:12:50;7.03;;;5.20;;
29688;SDS011;16600;47.444;8.334;2024-03-22T03:15:17;4.78;;;4.38;;
29688;SDS011;16600;47.444;8.334;2024-03-22T03:17:46;6.35;;;5.03;;
29688;SDS011;16600;47.444;8.334;2024-03-22T03:20:16;5.50;;;5.00;;
29688;SDS011;16600;47.444;8.334;2024-03-22T03:22:43;10.98;;;6.07;;
29688;SDS011;16600;47.444;8.334;2024-03-22T03:25:09;7.53;;;5.38;;
29688;SDS011;16600;47.444;8.334;2024-03-22T03:27:45;11.00;;;4.93;;
29688;SDS011;16600;47.444;8.334;2024-03-22T03:30:23;5.97;;;5.18;;
29688;SDS011;16600;47.444;8.334;2024-03-22T03:32:57;8.57;;;5.32;;
29688;SDS011;16600;47.444;8.334;2024-03-22T03:35:23;9.95;;;6.78;;
29688;SDS011;16600;47.444;8.334;2024-03-22T03:37:57;8.40;;;7.05;;
29688;SDS011;16600;47.444;8.334;2024-03-22T03:40:23;12.13;;;7.05;;
29688;SDS011;16600;47.444;8.334;2024-03-22T03:42:56;8.75;;;6.75;;
29688;SDS011;16600;47.444;8.334;2024-03-22T03:45:25;8.93;;;5.97;;
29688;SDS011;16600;47.444;8.334;2024-03-22T03:47:57;11.70;;;6.15;;
29688;SDS011;16600;47.444;8.334;2024-03-22T03:50:23;6.93;;;6.07;;
29688;SDS011;16600;47.444;8.334;2024-03-22T03:52:50;14.35;;;5.72;;
29688;SDS011;16600;47.444;8.334;2024-03-22T03:55:16;6.85;;;5.63;;
29688;SDS011;16600;47.444;8.334;2024-03-22T03:57:42;7.55;;;6.22;;
29688;SDS011;16600;47.444;8.334;2024-03-22T04:00:11;11.93;;;7.13;;
29688;SDS011;16600;47.444;8.334;2024-03-22T04:02:44;13.75;;;7.53;;
29688;SDS011;16600;47.444;8.334;2024-03-22T04:05:10;22.08;;;8.45;;
29688;SDS011;16600;47.444;8.334;2024-03-22T04:07:38;10.82;;;7.57;;
29688;SDS011;16600;47.444;8.334;2024-03-22T04:10:05;7.55;;;6.70;;
29688;SDS011;16600;47.444;8.334;2024-03-22T04:12:37;7.90;;;5.70;;
29688;SDS011;16600;47.444;8.334;2024-03-22T04:15:03;7.68;;;6.25;;
29688;SDS011;16600;47.444;8.334;2024-03-22T04:17:33;8.40;;;6.68;;
29688;SDS011;16600;47.444;8.334;2024-03-22T04:20:04;10.85;;;6.22;;
29688;SDS011;16600;47.444;8.334;2024-03-22T04:22:34;6.72;;;4.75;;
29688;SDS011;16600;47.444;8.334;2024-03-22T04:25:03;7.57;;;5.57;;
29688;SDS011;16600;47.444;8.334;2024-03-22T04:27:29;6.65;;;5.88;;
29688;SDS011;16600;47.444;8.334;2024-03-22T04:29:56;9.88;;;5.15;;
29688;SDS011;16600;47.444;8.334;2024-03-22T04:32:25;7.07;;;5.03;;
29688;SDS011;16600;47.444;8.334;2024-03-22T04:34:54;5.38;;;4.88;;
29688;SDS011;16600;47.444;8.334;2024-03-22T04:37:20;9.93;;;5.20;;
29688;SDS011;16600;47.444;8.334;2024-03-22T04:39:49;6.75;;;5.90;;
29688;SDS011;16600;47.444;8.334;2024-03-22T04:42:23;7.97;;;5.20;;
29688;SDS011;16600;47.444;8.334;2024-03-22T04:44:50;6.78;;;4.90;;
29688;SDS011;16600;47.444;8.334;2024-03-22T04:47:25;9.83;;;5.33;;
29688;SDS011;16600;47.444;8.334;2024-03-22T04:49:54;9.23;;;5.00;;
29688;SDS011;16600;47.444;8.334;2024-03-22T04:52:20;7.18;;;5.32;;
29688;SDS011;16600;47.444;8.334;2024-03-22T04:54:46;7.65;;;5.57;;
29688;SDS011;16600;47.444;8.334;2024-03-22T04:57:16;12.30;;;5.78;;
29688;SDS011;16600;47.444;8.334;2024-03-22T04:59:42;8.88;;;5.70;;
29688;SDS011;16600;47.444;8.334;2024-03-22T05:03:02;10.70;;;5.07;;
29688;SDS011;16600;47.444;8.334;2024-03-22T05:05:28;6.43;;;5.65;;
29688;SDS011;16600;47.444;8.334;2024-03-22T05:08:00;6.20;;;5.28;;
29688;SDS011;16600;47.444;8.334;2024-03-22T05:10:27;10.50;;;6.20;;
29688;SDS011;16600;47.444;8.334;2024-03-22T05:12:56;8.80;;;6.00;;
29688;SDS011;16600;47.444;8.334;2024-03-22T05:15:25;7.18;;;4.88;;
29688;SDS011;16600;47.444;8.334;2024-03-22T05:17:56;7.50;;;5.50;;
29688;SDS011;16600;47.444;8.334;2024-03-22T05:20:27;7.95;;;5.30;;
29688;SDS011;16600;47.444;8.334;2024-03-22T05:22:53;7.53;;;5.53;;
29688;SDS011;16600;47.444;8.334;2024-03-22T05:25:23;8.13;;;4.35;;
29688;SDS011;16600;47.444;8.334;2024-03-22T05:27:49;6.07;;;4.78;;
29688;SDS011;16600;47.444;8.334;2024-03-22T05:30:16;8.23;;;5.22;;
29688;SDS011;16600;47.444;8.334;2024-03-22T05:32:47;8.40;;;4.97;;
29688;SDS011;16600;47.444;8.334;2024-03-22T05:35:21;6.82;;;4.72;;
29688;SDS011;16600;47.444;8.334;2024-03-22T05:37:47;6.28;;;4.40;;
29688;SDS011;16600;47.444;8.334;2024-03-22T05:40:15;6.15;;;5.00;;
29688;SDS011;16600;47.444;8.334;2024-03-22T05:42:41;7.03;;;5.90;;
29688;SDS011;16600;47.444;8.334;2024-03-22T05:45:08;5.18;;;4.68;;
29688;SDS011;16600;47.444;8.334;2024-03-22T05:47:37;5.05;;;4.53;;
29688;SDS011;16600;47.444;8.334;2024-03-22T05:50:03;5.40;;;4.53;;
29688;SDS011;16600;47.444;8.334;2024-03-22T05:52:32;7.63;;;5.00;;
29688;SDS011;16600;47.444;8.334;2024-03-22T05:55:01;5.28;;;4.78;;
29688;SDS011;16600;47.444;8.334;2024-03-22T05:57:30;8.07;;;4.68;;
29688;SDS011;16600;47.444;8.334;2024-03-22T05:59:57;8.57;;;5.28;;
29688;SDS011;16600;47.444;8.334;2024-03-22T06:02:29;8.77;;;5.35;;
29688;SDS011;16600;47.444;8.334;2024-03-22T06:04:56;8.13;;;5.10;;
29688;SDS011;16600;47.444;8.334;2024-03-22T06:07:29;6.93;;;5.10;;
29688;SDS011;16600;47.444;8.334;2024-03-22T06:09:55;5.97;;;4.47;;
29688;SDS011;16600;47.444;8.334;2024-03-22T06:12:22;9.45;;;5.05;;
29688;SDS011;16600;47.444;8.334;2024-03-22T06:14:50;8.20;;;4.85;;
29688;SDS011;16600;47.444;8.334;2024-03-22T06:17:17;6.10;;;4.60;;
29688;SDS011;16600;47.444;8.334;2024-03-22T06:19:43;6.13;;;4.55;;
29688;SDS011;16600;47.444;8.334;2024-03-22T06:24:38;8.02;;;5.30;;
29688;SDS011;16600;47.444;8.334;2024-03-22T06:27:07;9.48;;;4.53;;
29688;SDS011;16600;47.444;8.334;2024-03-22T06:29:36;9.07;;;5.05;;
29688;SDS011;16600;47.444;8.334;2024-03-22T06:32:09;6.15;;;4.55;;
29688;SDS011;16600;47.444;8.334;2024-03-22T06:34:41;12.13;;;4.80;;
29688;SDS011;16600;47.444;8.334;2024-03-22T06:37:07;7.05;;;4.82;;
29688;SDS011;16600;47.444;8.334;2024-03-22T06:39:33;7.43;;;4.45;;
29688;SDS011;16600;47.444;8.334;2024-03-22T06:44:28;9.50;;;4.50;;
29688;SDS011;16600;47.444;8.334;2024-03-22T06:46:57;8.90;;;4.80;;
29688;SDS011;16600;47.444;8.334;2024-03-22T06:49:23;6.07;;;4.72;;
29688;SDS011;16600;47.444;8.334;2024-03-22T06:51:52;6.93;;;5.03;;
29688;SDS011;16600;47.444;8.334;2024-03-22T06:54:18;9.20;;;4.97;;
29688;SDS011;16600;47.444;8.334;2024-03-22T06:56:47;16.35;;;5.35;;
29688;SDS011;16600;47.444;8.334;2024-03-22T06:59:14;4.88;;;4.22;;
29688;SDS011;16600;47.444;8.334;2024-03-22T07:03:02;5.13;;;4.43;;
29688;SDS011;16600;47.444;8.334;2024-03-22T07:05:28;10.00;;;3.88;;
29688;SDS011;16600;47.444;8.334;2024-03-22T07:07:57;5.95;;;5.40;;
29688;SDS011;16600;47.444;8.334;2024-03-22T07:10:24;6.40;;;4.47;;
29688;SDS011;16600;47.444;8.334;2024-03-22T07:12:56;6.32;;;4.75;;
29688;SDS011;16600;47.444;8.334;2024-03-22T07:15:23;7.47;;;4.90;;
29688;SDS011;16600;47.444;8.334;2024-03-22T07:17:51;7.68;;;5.15;;
29688;SDS011;16600;47.444;8.334;2024-03-22T07:20:18;5.88;;;4.70;;
29688;SDS011;16600;47.444;8.334;2024-03-22T07:22:44;7.03;;;4.72;;
29688;SDS011;16600;47.444;8.334;2024-03-22T07:25:11;5.13;;;4.57;;
29688;SDS011;16600;47.444;8.334;2024-03-22T07:27:39;5.90;;;4.68;;
29688;SDS011;16600;47.444;8.334;2024-03-22T07:30:06;6.57;;;4.72;;
29688;SDS011;16600;47.444;8.334;2024-03-22T07:32:35;9.55;;;5.25;;
29688;SDS011;16600;47.444;8.334;2024-03-22T07:35:04;7.57;;;4.55;;
29688;SDS011;16600;47.444;8.334;2024-03-22T07:37:30;6.55;;;4.90;;
29688;SDS011;16600;47.444;8.334;2024-03-22T07:39:58;7.18;;;4.90;;
29688;SDS011;16600;47.444;8.334;2024-03-22T07:42:25;9.05;;;5.30;;
29688;SDS011;16600;47.444;8.334;2024-03-22T07:44:51;8.52;;;5.00;;
29688;SDS011;16600;47.444;8.334;2024-03-22T07:47:17;11.77;;;4.90;;
29688;SDS011;16600;47.444;8.334;2024-03-22T07:49:43;7.97;;;5.03;;
29688;SDS011;16600;47.444;8.334;2024-03-22T07:52:09;9.23;;;5.03;;
29688;SDS011;16600;47.444;8.334;2024-03-22T07:54:35;7.55;;;5.50;;
29688;SDS011;16600;47.444;8.334;2024-03-22T07:57:01;8.23;;;5.13;;
29688;SDS011;16600;47.444;8.334;2024-03-22T07:59:28;12.68;;;5.05;;
29688;SDS011;16600;47.444;8.334;2024-03-22T08:01:54;6.38;;;4.80;;
29688;SDS011;16600;47.444;8.334;2024-03-22T08:04:20;8.18;;;5.22;;
29688;SDS011;16600;47.444;8.334;2024-03-22T08:06:47;7.45;;;5.18;;
29688;SDS011;16600;47.444;8.334;2024-03-22T08:09:16;6.70;;;4.60;;
29688;SDS011;16600;47.444;8.334;2024-03-22T08:11:44;7.85;;;4.55;;
29688;SDS011;16600;47.444;8.334;2024-03-22T08:14:10;7.60;;;5.15;;
29688;SDS011;16600;47.444;8.334;2024-03-22T08:16:36;9.18;;;4.97;;
29688;SDS011;16600;47.444;8.334;2024-03-22T08:19:05;8.18;;;4.97;;
29688;SDS011;16600;47.444;8.334;2024-03-22T08:21:34;6.65;;;4.55;;
29688;SDS011;16600;47.444;8.334;2024-03-22T08:24:00;8.10;;;4.68;;
29688;SDS011;16600;47.444;8.334;2024-03-22T08:26:26;8.05;;;4.93;;
29688;SDS011;16600;47.444;8.334;2024-03-22T08:28:52;5.97;;;4.63;;
29688;SDS011;16600;47.444;8.334;2024-03-22T08:31:21;7.10;;;4.20;;
29688;SDS011;16600;47.444;8.334;2024-03-22T08:33:51;6.35;;;4.15;;
29688;SDS011;16600;47.444;8.334;2024-03-22T08:36:17;6.72;;;4.25;;
29688;SDS011;16600;47.444;8.334;2024-03-22T08:38:44;6.85;;;4.32;;
29688;SDS011;16600;47.444;8.334;2024-03-22T08:41:12;7.07;;;4.88;;
29688;SDS011;16600;47.444;8.334;2024-03-22T08:43:39;10.45;;;4.90;;
29688;SDS011;16600;47.444;8.334;2024-03-22T08:46:08;8.70;;;4.32;;
29688;SDS011;16600;47.444;8.334;2024-03-22T08:48:34;6.15;;;3.60;;
29688;SDS011;16600;47.444;8.334;2024-03-22T08:51:00;3.65;;;3.20;;
29688;SDS011;16600;47.444;8.334;2024-03-22T08:53:27;5.53;;;3.60;;
29688;SDS011;16600;47.444;8.334;2024-03-22T08:55:56;4.82;;;2.78;;
29688;SDS011;16600;47.444;8.334;2024-03-22T08:58:22;7.53;;;2.80;;
29688;SDS011;16600;47.444;8.334;2024-03-22T09:03:03;3.75;;;2.53;;
29688;SDS011;16600;47.444;8.334;2024-03-22T09:05:30;6.45;;;3.15;;
29688;SDS011;16600;47.444;8.334;2024-03-22T09:07:56;8.77;;;3.13;;
29688;SDS011;16600;47.444;8.334;2024-03-22T09:10:27;4.55;;;3.15;;
29688;SDS011;16600;47.444;8.334;2024-03-22T09:12:54;3.35;;;2.47;;
29688;SDS011;16600;47.444;8.334;2024-03-22T09:15:21;4.03;;;2.60;;
29688;SDS011;16600;47.444;8.334;2024-03-22T09:17:47;5.78;;;3.20;;
29688;SDS011;16600;47.444;8.334;2024-03-22T09:20:17;4.85;;;2.95;;
29688;SDS011;16600;47.444;8.334;2024-03-22T09:22:47;4.60;;;3.28;;
29688;SDS011;16600;47.444;8.334;2024-03-22T09:25:13;7.30;;;3.60;;
29688;SDS011;16600;47.444;8.334;2024-03-22T09:27:42;3.95;;;3.22;;
29688;SDS011;16600;47.444;8.334;2024-03-22T09:30:11;4.10;;;2.70;;
29688;SDS011;16600;47.444;8.334;2024-03-22T09:32:38;4.05;;;3.22;;
29688;SDS011;16600;47.444;8.334;2024-03-22T09:35:08;3.85;;;3.10;;
29688;SDS011;16600;47.444;8.334;2024-03-22T09:37:34;5.90;;;2.50;;
29688;SDS011;16600;47.444;8.334;2024-03-22T09:40:04;3.88;;;3.13;;
29688;SDS011;16600;47.444;8.334;2024-03-22T09:42:33;6.32;;;3.00;;
29688;SDS011;16600;47.444;8.334;2024-03-22T09:45:01;4.38;;;3.20;;
29688;SDS011;16600;47.444;8.334;2024-03-22T09:47:28;4.40;;;2.92;;
29688;SDS011;16600;47.444;8.334;2024-03-22T09:49:55;8.82;;;2.97;;
29688;SDS011;16600;47.444;8.334;2024-03-22T09:52:22;3.53;;;2.63;;
29688;SDS011;16600;47.444;8.334;2024-03-22T09:54:52;11.25;;;3.15;;
29688;SDS011;16600;47.444;8.334;2024-03-22T09:57:21;5.53;;;3.55;;
29688;SDS011;16600;47.444;8.334;2024-03-22T09:59:52;4.15;;;3.22;;
29688;SDS011;16600;47.444;8.334;2024-03-22T10:02:18;6.07;;;3.22;;
29688;SDS011;16600;47.444;8.334;2024-03-22T10:04:46;6.15;;;3.58;;
29688;SDS011;16600;47.444;8.334;2024-03-22T10:07:12;7.18;;;2.90;;
29688;SDS011;16600;47.444;8.334;2024-03-22T10:09:39;6.55;;;3.40;;
29688;SDS011;16600;47.444;8.334;2024-03-22T10:12:06;4.03;;;3.00;;
29688;SDS011;16600;47.444;8.334;2024-03-22T10:14:33;5.50;;;3.05;;
29688;SDS011;16600;47.444;8.334;2024-03-22T10:17:02;4.13;;;2.88;;
29688;SDS011;16600;47.444;8.334;2024-03-22T10:19:31;4.00;;;2.72;;
29688;SDS011;16600;47.444;8.334;2024-03-22T10:22:03;3.85;;;2.70;;
29688;SDS011;16600;47.444;8.334;2024-03-22T10:24:32;3.17;;;2.88;;
29688;SDS011;16600;47.444;8.334;2024-03-22T10:27:04;3.10;;;2.63;;
29688;SDS011;16600;47.444;8.334;2024-03-22T10:29:30;5.30;;;2.55;;
29688;SDS011;16600;47.444;8.334;2024-03-22T10:31:59;3.55;;;2.45;;
29688;SDS011;16600;47.444;8.334;2024-03-22T10:34:26;3.15;;;2.15;;
29688;SDS011;16600;47.444;8.334;2024-03-22T10:36:56;3.78;;;2.20;;
29688;SDS011;16600;47.444;8.334;2024-03-22T10:39:27;2.90;;;2.15;;
29688;SDS011;16600;47.444;8.334;2024-03-22T10:41:57;5.28;;;2.10;;
29688;SDS011;16600;47.444;8.334;2024-03-22T10:44:31;8.02;;;2.30;;
29688;SDS011;16600;47.444;8.334;2024-03-22T10:46:57;2.88;;;2.35;;
29688;SDS011;16600;47.444;8.334;2024-03-22T10:49:30;2.58;;;2.28;;
29688;SDS011;16600;47.444;8.334;2024-03-22T10:52:02;3.30;;;2.72;;
29688;SDS011;16600;47.444;8.334;2024-03-22T10:54:30;2.55;;;1.80;;
29688;SDS011;16600;47.444;8.334;2024-03-22T10:56:58;6.80;;;2.90;;
29688;SDS011;16600;47.444;8.334;2024-03-22T10:59:25;7.15;;;2.35;;
29688;SDS011;16600;47.444;8.334;2024-03-22T11:03:03;3.00;;;2.20;;
29688;SDS011;16600;47.444;8.334;2024-03-22T11:05:34;4.25;;;1.88;;
29688;SDS011;16600;47.444;8.334;2024-03-22T11:08:12;3.63;;;2.35;;
29688;SDS011;16600;47.444;8.334;2024-03-22T11:10:39;4.55;;;2.35;;
29688;SDS011;16600;47.444;8.334;2024-03-22T11:13:06;1.52;;;1.42;;
29688;SDS011;16600;47.444;8.334;2024-03-22T11:15:33;2.60;;;1.55;;
29688;SDS011;16600;47.444;8.334;2024-03-22T11:17:59;3.33;;;1.52;;
29688;SDS011;16600;47.444;8.334;2024-03-22T11:20:28;2.60;;;1.65;;
29688;SDS011;16600;47.444;8.334;2024-03-22T11:22:59;3.10;;;1.75;;
29688;SDS011;16600;47.444;8.334;2024-03-22T11:25:25;3.58;;;1.58;;
29688;SDS011;16600;47.444;8.334;2024-03-22T11:27:54;1.70;;;1.30;;
29688;SDS011;16600;47.444;8.334;2024-03-22T11:30:26;1.83;;;1.45;;
29688;SDS011;16600;47.444;8.334;2024-03-22T11:32:57;1.67;;;1.58;;
29688;SDS011;16600;47.444;8.334;2024-03-22T11:35:28;1.92;;;1.50;;
29688;SDS011;16600;47.444;8.334;2024-03-22T11:38:00;2.55;;;1.40;;
29688;SDS011;16600;47.444;8.334;2024-03-22T11:40:26;2.20;;;1.35;;
29688;SDS011;16600;47.444;8.334;2024-03-22T11:42:57;2.40;;;1.60;;
29688;SDS011;16600;47.444;8.334;2024-03-22T11:45:23;1.70;;;1.30;;
29688;SDS011;16600;47.444;8.334;2024-03-22T11:47:50;5.53;;;1.67;;
29688;SDS011;16600;47.444;8.334;2024-03-22T11:50:16;7.88;;;1.58;;
29688;SDS011;16600;47.444;8.334;2024-03-22T11:52:43;3.40;;;1.50;;
29688;SDS011;16600;47.444;8.334;2024-03-22T11:55:12;1.42;;;1.25;;
29688;SDS011;16600;47.444;8.334;2024-03-22T11:57:47;1.50;;;1.13;;
29688;SDS011;16600;47.444;8.334;2024-03-22T12:00:13;2.15;;;1.27;;
29688;SDS011;16600;47.444;8.334;2024-03-22T12:02:40;2.72;;;1.70;;
29688;SDS011;16600;47.444;8.334;2024-03-22T12:05:09;2.78;;;1.50;;
29688;SDS011;16600;47.444;8.334;2024-03-22T12:07:36;2.85;;;1.52;;
29688;SDS011;16600;47.444;8.334;2024-03-22T12:10:03;1.48;;;1.17;;
29688;SDS011;16600;47.444;8.334;2024-03-22T12:12:29;1.73;;;0.95;;
29688;SDS011;16600;47.444;8.334;2024-03-22T12:14:55;2.67;;;1.30;;
29688;SDS011;16600;47.444;8.334;2024-03-22T12:17:21;5.80;;;1.20;;
29688;SDS011;16600;47.444;8.334;2024-03-22T12:19:47;3.08;;;1.45;;
29688;SDS011;16600;47.444;8.334;2024-03-22T12:22:17;2.28;;;1.40;;
29688;SDS011;16600;47.444;8.334;2024-03-22T12:24:43;6.80;;;1.45;;
29688;SDS011;16600;47.444;8.334;2024-03-22T12:27:11;1.77;;;1.20;;
29688;SDS011;16600;47.444;8.334;2024-03-22T12:29:40;2.75;;;1.40;;
29688;SDS011;16600;47.444;8.334;2024-03-22T12:32:07;1.73;;;1.63;;
29688;SDS011;16600;47.444;8.334;2024-03-22T12:34:33;3.05;;;1.33;;
29688;SDS011;16600;47.444;8.334;2024-03-22T12:37:00;2.10;;;1.38;;
29688;SDS011;16600;47.444;8.334;2024-03-22T12:39:26;5.00;;;1.30;;
29688;SDS011;16600;47.444;8.334;2024-03-22T12:41:57;2.67;;;1.20;;
29688;SDS011;16600;47.444;8.334;2024-03-22T12:44:24;1.80;;;1.25;;
29688;SDS011;16600;47.444;8.334;2024-03-22T12:46:53;2.25;;;1.20;;
29688;SDS011;16600;47.444;8.334;2024-03-22T12:49:22;2.67;;;1.92;;
29688;SDS011;16600;47.444;8.334;2024-03-22T12:52:00;2.53;;;1.50;;
29688;SDS011;16600;47.444;8.334;2024-03-22T12:54:30;4.25;;;1.60;;
29688;SDS011;16600;47.444;8.334;2024-03-22T12:56:56;6.03;;;2.00;;
29688;SDS011;16600;47.444;8.334;2024-03-22T12:59:23;1.50;;;1.40;;
29688;SDS011;16600;47.444;8.334;2024-03-22T13:03:02;4.10;;;1.33;;
29688;SDS011;16600;47.444;8.334;2024-03-22T13:05:28;2.38;;;1.20;;
29688;SDS011;16600;47.444;8.334;2024-03-22T13:07:56;3.70;;;1.20;;
29688;SDS011;16600;47.444;8.334;2024-03-22T13:10:23;2.20;;;1.17;;
29688;SDS011;16600;47.444;8.334;2024-03-22T13:12:52;2.78;;;1.08;;
29688;SDS011;16600;47.444;8.334;2024-03-22T13:15:18;1.10;;;0.90;;
29688;SDS011;16600;47.444;8.334;2024-03-22T13:17:47;1.52;;;1.10;;
29688;SDS011;16600;47.444;8.334;2024-03-22T13:20:13;3.22;;;1.38;;
29688;SDS011;16600;47.444;8.334;2024-03-22T13:22:44;3.70;;;1.33;;
29688;SDS011;16600;47.444;8.334;2024-03-22T13:25:10;1.38;;;1.00;;
29688;SDS011;16600;47.444;8.334;2024-03-22T13:27:37;1.40;;;1.00;;
29688;SDS011;16600;47.444;8.334;2024-03-22T13:30:06;1.10;;;1.00;;
29688;SDS011;16600;47.444;8.334;2024-03-22T13:32:38;2.88;;;1.13;;
29688;SDS011;16600;47.444;8.334;2024-03-22T13:35:07;2.28;;;1.20;;
29688;SDS011;16600;47.444;8.334;2024-03-22T13:37:34;3.63;;;1.40;;
29688;SDS011;16600;47.444;8.334;2024-03-22T13:40:01;4.32;;;1.90;;
29688;SDS011;16600;47.444;8.334;2024-03-22T13:42:27;3.80;;;1.30;;
29688;SDS011;16600;47.444;8.334;2024-03-22T13:44:55;1.55;;;1.05;;
29688;SDS011;16600;47.444;8.334;2024-03-22T13:47:22;1.50;;;1.17;;
29688;SDS011;16600;47.444;8.334;2024-03-22T13:49:48;1.60;;;1.30;;
29688;SDS011;16600;47.444;8.334;2024-03-22T13:52:18;1.88;;;1.30;;
29688;SDS011;16600;47.444;8.334;2024-03-22T13:54:46;1.35;;;1.20;;
29688;SDS011;16600;47.444;8.334;2024-03-22T13:57:17;1.45;;;1.30;;
29688;SDS011;16600;47.444;8.334;2024-03-22T13:59:43;1.58;;;1.45;;
29688;SDS011;16600;47.444;8.334;2024-03-22T14:02:10;2.30;;;1.80;;
29688;SDS011;16600;47.444;8.334;2024-03-22T14:04:39;2.25;;;1.13;;
29688;SDS011;16600;47.444;8.334;2024-03-22T14:07:05;2.05;;;1.30;;
29688;SDS011;16600;47.444;8.334;2024-03-22T14:09:35;1.90;;;1.00;;
29688;SDS011;16600;47.444;8.334;2024-03-22T14:12:05;2.63;;;1.30;;
29688;SDS011;16600;47.444;8.334;2024-03-22T14:14:32;1.73;;;1.10;;
29688;SDS011;16600;47.444;8.334;2024-03-22T14:16:58;1.70;;;1.38;;
29688;SDS011;16600;47.444;8.334;2024-03-22T14:19:25;3.42;;;1.20;;
29688;SDS011;16600;47.444;8.334;2024-03-22T14:24:28;1.60;;;1.40;;
29688;SDS011;16600;47.444;8.334;2024-03-22T14:26:57;7.65;;;1.23;;
29688;SDS011;16600;47.444;8.334;2024-03-22T14:29:24;5.20;;;2.30;;
29688;SDS011;16600;47.444;8.334;2024-03-22T14:31:52;3.63;;;1.92;;
29688;SDS011;16600;47.444;8.334;2024-03-22T14:34:22;3.38;;;1.35;;
29688;SDS011;16600;47.444;8.334;2024-03-22T14:36:48;1.38;;;1.20;;
29688;SDS011;16600;47.444;8.334;2024-03-22T14:39:17;5.28;;;1.42;;
29688;SDS011;16600;47.444;8.334;2024-03-22T14:41:50;6.25;;;1.85;;
29688;SDS011;16600;47.444;8.334;2024-03-22T14:44:22;1.80;;;1.40;;
29688;SDS011;16600;47.444;8.334;2024-03-22T14:46:48;3.65;;;1.65;;
29688;SDS011;16600;47.444;8.334;2024-03-22T14:49:23;3.72;;;1.30;;
29688;SDS011;16600;47.444;8.334;2024-03-22T14:51:52;5.65;;;1.48;;
29688;SDS011;16600;47.444;8.334;2024-03-22T14:54:24;3.47;;;1.50;;
29688;SDS011;16600;47.444;8.334;2024-03-22T14:56:51;1.50;;;1.40;;
29688;SDS011;16600;47.444;8.334;2024-03-22T14:59:20;4.13;;;1.60;;
29688;SDS011;16600;47.444;8.334;2024-03-22T15:03:04;2.40;;;1.08;;
29688;SDS011;16600;47.444;8.334;2024-03-22T15:05:31;2.38;;;1.30;;
29688;SDS011;16600;47.444;8.334;2024-03-22T15:07:57;2.80;;;1.58;;
29688;SDS011;16600;47.444;8.334;2024-03-22T15:10:23;1.80;;;1.33;;
29688;SDS011;16600;47.444;8.334;2024-03-22T15:12:52;3.85;;;1.58;;
29688;SDS011;16600;47.444;8.334;2024-03-22T15:15:22;3.03;;;1.50;;